Time;durP1;ratioP1;P1;durP2;ratioP2;P2;SDS_P1;SDS_P2;PMS_P1;PMS_P2;Temp;Humidity;BMP_temperature;BMP_pressure;BME280_temperature;BME280_humidity;BME280_pressure;Samples;Min_cycle;Max_cycle;Signal;HPM_P1;HPM_P2
2023/06/16 00:01:31;;;;;;;12.50;6.00;;;;;;;12.36;100.00;99796.15;109489;1253;60045;-66
2023/06/16 00:04:17;;;;;;;13.60;7.00;;;;;;;12.33;100.00;99798.33;109370;1253;70891;-68
2023/06/16 00:07:06;;;;;;;13.80;7.00;;;;;;;12.32;100.00;99803.92;109413;1253;67103;-69
2023/06/16 00:09:52;;;;;;;12.60;6.80;;;;;;;12.30;100.00;99802.17;109465;1253;72499;-65
2023/06/16 00:12:40;;;;;;;12.30;7.00;;;;;;;12.26;100.00;99796.63;109338;1254;59704;-65
2023/06/16 00:15:27;;;;;;;11.80;7.20;;;;;;;12.24;100.00;99798.91;109305;1252;59291;-69
2023/06/16 00:18:13;;;;;;;12.30;6.60;;;;;;;12.24;100.00;99801.82;109199;1254;72187;-71
2023/06/16 00:21:02;;;;;;;11.70;6.60;;;;;;;12.24;100.00;99802.36;109277;1252;66429;-68
2023/06/16 00:23:48;;;;;;;13.30;6.50;;;;;;;12.24;100.00;99797.73;109264;1252;72598;-69
2023/06/16 00:26:35;;;;;;;12.00;6.50;;;;;;;12.25;100.00;99793.30;109348;1253;58314;-69
2023/06/16 00:29:22;;;;;;;13.40;7.40;;;;;;;12.26;100.00;99793.03;109290;1252;61074;-69
2023/06/16 00:32:10;;;;;;;11.90;7.00;;;;;;;12.28;100.00;99788.13;109216;1254;73518;-65
2023/06/16 00:34:57;;;;;;;12.80;6.70;;;;;;;12.30;100.00;99785.15;108991;1257;66315;-68
2023/06/16 00:37:45;;;;;;;12.70;7.20;;;;;;;12.30;100.00;99783.10;108943;1260;71321;-67
2023/06/16 00:40:32;;;;;;;11.20;7.10;;;;;;;12.31;100.00;99784.13;108526;1267;59365;-69
2023/06/16 00:43:18;;;;;;;11.20;6.40;;;;;;;12.31;100.00;99785.58;108554;1266;60087;-66
2023/06/16 00:46:09;;;;;;;11.10;6.20;;;;;;;12.33;100.00;99788.97;108479;1267;71947;-65
2023/06/16 00:48:58;;;;;;;12.50;6.90;;;;;;;12.33;100.00;99792.26;108578;1266;67946;-67
2023/06/16 00:51:48;;;;;;;12.30;6.70;;;;;;;12.33;100.00;99791.19;108483;1267;72666;-65
2023/06/16 00:54:37;;;;;;;14.60;6.80;;;;;;;12.34;100.00;99787.43;108448;1267;59456;-68
2023/06/16 00:57:25;;;;;;;11.90;6.60;;;;;;;12.33;100.00;99789.59;108463;1267;59070;-67
2023/06/16 01:00:12;;;;;;;12.90;6.40;;;;;;;12.34;100.00;99790.64;108430;1267;72431;-67
2023/06/16 01:03:02;;;;;;;12.50;7.10;;;;;;;12.33;100.00;99788.77;108454;1267;67895;-63
2023/06/16 01:05:49;;;;;;;12.30;7.00;;;;;;;12.33;100.00;99789.84;108516;1263;72831;-67
2023/06/16 01:08:51;;;;;;;12.00;6.80;;;;;;;12.31;100.00;99785.20;108550;1261;58866;-65
2023/06/16 01:12:03;;;;;;;11.50;6.70;;;;;;;12.26;100.00;99782.02;109115;1256;60047;-63
2023/06/16 01:15:00;;;;;;;14.00;7.10;;;;;;;12.22;100.00;99779.27;109120;1256;73220;-63
2023/06/16 01:17:50;;;;;;;13.10;7.70;;;;;;;12.19;100.00;99782.89;109251;1254;67969;-65
2023/06/16 01:21:16;;;;;;;13.10;7.10;;;;;;;12.13;100.00;99783.90;109539;1253;72534;-63
2023/06/16 01:24:08;;;;;;;13.00;6.80;;;;;;;12.08;100.00;99789.51;109114;1257;58094;-63
2023/06/16 01:26:57;;;;;;;13.40;7.50;;;;;;;12.04;100.00;99791.45;109006;1257;59335;-65
2023/06/16 01:29:46;;;;;;;12.10;7.70;;;;;;;12.00;100.00;99791.14;108968;1256;72468;-63
2023/06/16 01:32:35;;;;;;;14.00;7.30;;;;;;;11.95;100.00;99791.33;108996;1257;67714;-64
2023/06/16 01:35:23;;;;;;;11.30;6.80;;;;;;;11.92;100.00;99789.30;109020;1257;72764;-61
2023/06/16 01:38:13;;;;;;;11.80;7.10;;;;;;;11.87;100.00;99789.54;108924;1257;60269;-65
2023/06/16 01:41:02;;;;;;;13.50;7.30;;;;;;;11.83;100.00;99789.94;108987;1257;58714;-64
2023/06/16 01:43:50;;;;;;;12.40;7.30;;;;;;;11.79;100.00;99790.09;109127;1257;72060;-67
2023/06/16 01:46:37;;;;;;;14.60;8.10;;;;;;;11.77;100.00;99789.50;109058;1259;67953;-66
2023/06/16 01:49:25;;;;;;;14.40;7.80;;;;;;;11.84;100.00;99787.50;109031;1258;74000;-63
2023/06/16 01:52:11;;;;;;;15.00;8.50;;;;;;;11.90;100.00;99790.30;108851;1259;59396;-64
2023/06/16 01:54:58;;;;;;;14.00;7.90;;;;;;;11.93;100.00;99796.14;109217;1253;58922;-64
2023/06/16 01:57:47;;;;;;;12.40;7.20;;;;;;;11.96;100.00;99791.15;109070;1256;69781;-63
2023/06/16 02:00:43;;;;;;;15.30;7.80;;;;;;;11.98;100.00;99786.83;109089;1256;67988;-65
2023/06/16 02:03:54;;;;;;;17.10;8.10;;;;;;;12.02;100.00;99786.29;109075;1256;72642;-67
2023/06/16 02:07:07;;;;;;;12.80;7.60;;;;;;;12.04;100.00;99782.91;109176;1256;58560;-67
2023/06/16 02:09:54;;;;;;;12.30;7.80;;;;;;;12.07;100.00;99777.01;109183;1256;58817;-66
2023/06/16 02:12:43;;;;;;;15.70;8.00;;;;;;;12.12;100.00;99777.45;109182;1256;70912;-63
2023/06/16 02:15:32;;;;;;;13.70;8.60;;;;;;;12.17;100.00;99775.73;109036;1256;67720;-66
2023/06/16 02:18:24;;;;;;;14.60;8.00;;;;;;;12.19;100.00;99767.55;109105;1256;71751;-64
2023/06/16 02:21:10;;;;;;;13.90;8.50;;;;;;;12.20;100.00;99769.99;109028;1256;56951;-68
2023/06/16 02:23:57;;;;;;;13.70;8.00;;;;;;;12.21;100.00;99771.80;109161;1256;58864;-66
2023/06/16 02:26:43;;;;;;;15.20;8.30;;;;;;;12.20;100.00;99768.39;109029;1256;73066;-68
2023/06/16 02:29:31;;;;;;;13.30;8.10;;;;;;;12.16;100.00;99765.02;109310;1253;66509;-67
2023/06/16 02:32:18;;;;;;;14.20;8.00;;;;;;;12.11;100.00;99765.62;109278;1252;71416;-66
2023/06/16 02:35:06;;;;;;;13.10;8.30;;;;;;;12.06;100.00;99763.92;109242;1253;58544;-66
2023/06/16 02:37:53;;;;;;;14.30;8.00;;;;;;;12.04;100.00;99760.73;109369;1252;59298;-67
2023/06/16 02:40:40;;;;;;;13.00;8.20;;;;;;;12.03;100.00;99758.86;109501;1252;71002;-66
2023/06/16 02:43:28;;;;;;;15.00;9.20;;;;;;;12.05;100.00;99759.42;109321;1252;67834;-65
2023/06/16 02:46:14;;;;;;;14.20;8.50;;;;;;;12.05;100.00;99763.08;109243;1252;72476;-65
2023/06/16 02:49:01;;;;;;;16.20;8.60;;;;;;;12.07;100.00;99759.59;109169;1252;58008;-68
2023/06/16 02:51:49;;;;;;;13.40;9.20;;;;;;;12.07;100.00;99762.52;109412;1253;60877;-66
2023/06/16 02:54:36;;;;;;;12.70;8.00;;;;;;;12.08;100.00;99756.48;109295;1252;72312;-69
2023/06/16 02:57:22;;;;;;;15.70;8.60;;;;;;;12.08;100.00;99754.51;109317;1253;66608;-65
2023/06/16 03:00:11;;;;;;;13.20;8.20;;;;;;;12.12;100.00;99754.87;109248;1252;70291;-66
2023/06/16 03:03:14;;;;;;;16.40;8.80;;;;;;;12.16;100.00;99750.27;109235;1259;60821;-65
2023/06/16 03:06:03;;;;;;;13.70;8.60;;;;;;;12.18;100.00;99753.78;109293;1252;58810;-67
2023/06/16 03:08:50;;;;;;;14.00;8.30;;;;;;;12.19;100.00;99757.63;109283;1254;71972;-68
2023/06/16 03:11:36;;;;;;;14.40;8.60;;;;;;;12.21;100.00;99751.01;109243;1253;66403;-66
2023/06/16 03:14:23;;;;;;;14.80;8.30;;;;;;;12.26;100.00;99750.79;109288;1252;72624;-66
2023/06/16 03:17:11;;;;;;;13.90;9.40;;;;;;;12.33;100.00;99754.20;109083;1256;57681;-66
2023/06/16 03:19:58;;;;;;;12.80;9.10;;;;;;;12.41;100.00;99754.42;109160;1257;58864;-65
2023/06/16 03:22:55;;;;;;;15.40;8.90;;;;;;;12.49;100.00;99753.29;109013;1257;72308;-67
2023/06/16 03:25:42;;;;;;;15.80;8.90;;;;;;;12.54;100.00;99752.30;109039;1257;66452;-65
2023/06/16 03:28:28;;;;;;;13.60;8.80;;;;;;;12.57;100.00;99753.30;108916;1257;72517;-65
2023/06/16 03:31:15;;;;;;;14.20;9.50;;;;;;;12.60;100.00;99750.55;108925;1257;58938;-68
2023/06/16 03:34:04;;;;;;;16.60;8.90;;;;;;;12.66;100.00;99754.59;109091;1257;60190;-69
2023/06/16 03:37:05;;;;;;;17.40;9.70;;;;;;;12.75;100.00;99755.02;108961;1257;71988;-71
2023/06/16 03:39:56;;;;;;;16.20;9.20;;;;;;;12.86;100.00;99756.33;109048;1257;67979;-67
2023/06/16 03:42:42;;;;;;;19.10;9.80;;;;;;;13.01;100.00;99755.39;108865;1258;71365;-67
2023/06/16 03:45:30;;;;;;;20.40;10.40;;;;;;;13.13;100.00;99748.41;108977;1257;57633;-69
2023/06/16 03:48:16;;;;;;;18.40;11.00;;;;;;;13.24;100.00;99746.40;109087;1256;59236;-67
2023/06/16 03:51:07;;;;;;;16.40;9.20;;;;;;;13.35;100.00;99751.35;108994;1258;72024;-63
2023/06/16 03:53:54;;;;;;;18.50;10.00;;;;;;;13.35;100.00;99754.75;109172;1254;66891;-63
2023/06/16 03:56:40;;;;;;;19.90;11.50;;;;;;;13.33;100.00;99752.93;109239;1252;71308;-61
2023/06/16 03:59:27;;;;;;;20.70;11.20;;;;;;;13.32;100.00;99753.24;109258;1252;57959;-64
2023/06/16 04:02:14;;;;;;;20.00;11.80;;;;;;;13.32;100.00;99755.70;109520;1253;60092;-64
2023/06/16 04:05:04;;;;;;;17.20;9.90;;;;;;;13.39;100.00;99756.70;109218;1253;73050;-62
2023/06/16 04:07:51;;;;;;;20.30;11.50;;;;;;;13.46;100.00;99752.94;109394;1253;67645;-62
2023/06/16 04:10:37;;;;;;;19.60;10.40;;;;;;;13.57;100.00;99748.93;109067;1258;72573;-61
2023/06/16 04:13:26;;;;;;;17.60;10.80;;;;;;;13.70;100.00;99750.31;108950;1258;59452;-63
2023/06/16 04:16:13;;;;;;;32.70;11.70;;;;;;;13.84;100.00;99750.84;108937;1258;60216;-63
2023/06/16 04:19:03;;;;;;;18.00;9.90;;;;;;;13.94;100.00;99748.17;109000;1258;72813;-61
2023/06/16 04:21:49;;;;;;;22.20;11.10;;;;;;;14.05;100.00;99748.03;108873;1258;66464;-64
2023/06/16 04:24:36;;;;;;;21.00;10.70;;;;;;;14.18;100.00;99750.18;109024;1258;72488;-63
2023/06/16 04:27:23;;;;;;;21.30;12.10;;;;;;;14.34;100.00;99747.19;108962;1258;59786;-62
2023/06/16 04:30:11;;;;;;;20.10;11.40;;;;;;;14.46;100.00;99750.30;109034;1258;58712;-64
2023/06/16 04:33:01;;;;;;;22.10;12.70;;;;;;;14.56;100.00;99757.19;109053;1258;71001;-63
2023/06/16 04:35:50;;;;;;;20.00;12.70;;;;;;;14.71;100.00;99758.37;109047;1258;68375;-63
2023/06/16 04:38:37;;;;;;;18.00;11.20;;;;;;;14.85;99.60;99759.89;108946;1258;71144;-65
2023/06/16 04:41:24;;;;;;;15.40;10.20;;;;;;;14.93;99.53;99755.81;109162;1254;59372;-59
2023/06/16 04:44:10;;;;;;;16.90;11.80;;;;;;;15.04;98.69;99756.92;109273;1255;61327;-64
2023/06/16 04:46:57;;;;;;;14.20;8.40;;;;;;;15.12;98.49;99758.90;109219;1253;72087;-62
2023/06/16 04:49:44;;;;;;;17.20;10.40;;;;;;;15.16;96.99;99754.59;109404;1254;66537;-61
2023/06/16 04:52:30;;;;;;;16.00;10.50;;;;;;;15.24;96.91;99752.71;109167;1254;71402;-64
2023/06/16 04:55:18;;;;;;;14.90;9.50;;;;;;;15.38;96.15;99753.41;109157;1254;56965;-63
2023/06/16 04:58:04;;;;;;;17.60;11.20;;;;;;;15.52;95.11;99757.33;109289;1254;57981;-65
2023/06/16 05:00:51;;;;;;;16.00;10.60;;;;;;;15.59;93.49;99759.34;109128;1253;72441;-65
2023/06/16 05:03:37;;;;;;;16.10;11.80;;;;;;;15.62;92.72;99758.08;109452;1254;66418;-63
2023/06/16 05:06:25;;;;;;;17.00;10.80;;;;;;;15.66;92.12;99757.67;109294;1254;72049;-65
2023/06/16 05:09:12;;;;;;;17.20;11.70;;;;;;;15.71;91.67;99756.87;109206;1254;59389;-71
2023/06/16 05:11:58;;;;;;;16.60;10.80;;;;;;;15.71;91.13;99759.77;109235;1254;59025;-72
2023/06/16 05:14:46;;;;;;;20.10;11.20;;;;;;;15.84;91.32;99759.10;109133;1254;70724;-73
2023/06/16 05:17:35;;;;;;;16.50;11.00;;;;;;;16.68;90.05;99761.96;109093;1255;66445;-71
2023/06/16 05:20:22;;;;;;;17.20;11.10;;;;;;;17.62;86.52;99759.60;109251;1254;71651;-69
2023/06/16 05:23:09;;;;;;;16.10;9.90;;;;;;;18.22;82.20;99755.95;109364;1254;58690;-63
2023/06/16 05:25:57;;;;;;;14.10;9.80;;;;;;;18.34;79.76;99757.73;109220;1256;60377;-63
2023/06/16 05:28:43;;;;;;;14.00;9.20;;;;;;;18.78;78.53;99761.45;109307;1254;71233;-69
2023/06/16 05:31:31;;;;;;;13.20;9.10;;;;;;;18.93;76.85;99760.62;109372;1254;67628;-68
2023/06/16 05:34:19;;;;;;;14.80;9.60;;;;;;;19.27;75.61;99762.73;109344;1254;71565;-63
2023/06/16 05:37:05;;;;;;;12.30;8.90;;;;;;;19.85;74.72;99756.56;109063;1257;57755;-68
2023/06/16 05:39:52;;;;;;;16.60;9.20;;;;;;;20.29;71.46;99756.59;109005;1257;58732;-63
2023/06/16 05:42:39;;;;;;;11.80;8.50;;;;;;;20.79;69.56;99753.52;109021;1258;71997;-62
2023/06/16 05:45:26;;;;;;;14.00;8.90;;;;;;;21.50;67.24;99753.17;109119;1257;68713;-63
2023/06/16 05:48:12;;;;;;;11.90;8.60;;;;;;;22.16;65.29;99755.08;109111;1257;72164;-70
2023/06/16 05:50:59;;;;;;;13.20;8.90;;;;;;;22.69;61.87;99761.83;108986;1257;56925;-68
2023/06/16 05:53:46;;;;;;;12.60;7.60;;;;;;;23.22;60.40;99762.79;109092;1258;58969;-65
2023/06/16 05:56:32;;;;;;;11.50;7.90;;;;;;;23.88;58.42;99757.05;109085;1257;73116;-65
2023/06/16 05:59:19;;;;;;;13.10;8.00;;;;;;;24.43;56.25;99758.34;109067;1257;66758;-66
2023/06/16 06:02:06;;;;;;;12.50;7.60;;;;;;;24.68;54.12;99764.11;108985;1257;72448;-63
2023/06/16 06:04:53;;;;;;;11.50;6.50;;;;;;;24.92;51.02;99766.63;109013;1256;56890;-67
2023/06/16 06:07:40;;;;;;;10.40;6.00;;;;;;;25.00;49.76;99764.02;109171;1253;59982;-66
2023/06/16 06:10:28;;;;;;;11.70;7.30;;;;;;;25.08;49.65;99764.48;109211;1256;71971;-67
2023/06/16 06:13:15;;;;;;;10.90;6.80;;;;;;;25.35;49.88;99766.29;109251;1252;67629;-66
2023/06/16 06:16:03;;;;;;;13.20;7.20;;;;;;;25.55;49.15;99764.15;109326;1254;72696;-69
2023/06/16 06:18:50;;;;;;;11.20;5.90;;;;;;;25.70;47.00;99760.20;109267;1252;57656;-71
2023/06/16 06:21:38;;;;;;;8.30;4.60;;;;;;;25.95;45.60;99760.82;109384;1252;58810;-70
2023/06/16 06:24:25;;;;;;;10.70;4.40;;;;;;;26.25;43.39;99761.45;109318;1252;72094;-73
2023/06/16 06:27:12;;;;;;;10.70;5.00;;;;;;;26.96;42.17;99759.31;109240;1253;68957;-71
2023/06/16 06:29:59;;;;;;;8.00;4.30;;;;;;;28.00;39.92;99762.36;109319;1252;72704;-69
2023/06/16 06:32:46;;;;;;;10.00;5.30;;;;;;;28.75;38.28;99761.09;109494;1253;56959;-69
2023/06/16 06:35:33;;;;;;;11.60;5.00;;;;;;;28.93;38.41;99761.47;109269;1252;59910;-69
2023/06/16 06:38:20;;;;;;;9.40;4.90;;;;;;;28.73;39.25;99762.58;109356;1254;73532;-65
2023/06/16 06:41:07;;;;;;;10.40;5.30;;;;;;;29.08;38.83;99765.33;109257;1252;67986;-68
2023/06/16 06:43:54;;;;;;;10.00;6.00;;;;;;;28.55;39.82;99758.71;109124;1257;72423;-72
2023/06/16 06:47:00;;;;;;;9.90;6.10;;;;;;;28.50;40.72;99758.08;108975;1258;57097;-71
2023/06/16 06:49:47;;;;;;;8.80;4.90;;;;;;;29.14;39.64;99762.14;109069;1257;61492;-71
2023/06/16 06:52:33;;;;;;;10.10;5.30;;;;;;;29.72;38.47;99757.75;108819;1257;200706;-74
2023/06/16 06:55:20;;;;;;;8.80;4.70;;;;;;;30.45;36.27;99763.76;109085;1260;67895;-71
2023/06/16 06:58:07;;;;;;;12.00;4.90;;;;;;;30.88;35.20;99760.52;108984;1258;72761;-71
2023/06/16 07:00:53;;;;;;;13.10;6.10;;;;;;;31.20;34.46;99763.48;109078;1257;58523;-70
2023/06/16 07:03:40;;;;;;;10.70;6.90;;;;;;;30.58;34.30;99761.88;109054;1256;58939;-71
2023/06/16 07:06:27;;;;;;;11.30;6.20;;;;;;;30.62;34.47;99763.08;109054;1256;72445;-72
2023/06/16 07:09:15;;;;;;;12.10;6.90;;;;;;;31.19;34.88;99763.02;109096;1256;67694;-70
2023/06/16 07:12:17;;;;;;;11.40;7.60;;;;;;;32.05;33.44;99760.86;109101;1257;72954;-70
2023/06/16 07:15:04;;;;;;;13.60;7.10;;;;;;;32.78;31.94;99755.55;109154;1254;58430;-70
2023/06/16 07:17:50;;;;;;;11.00;6.70;;;;;;;33.42;31.19;99751.29;109268;1254;59283;-70
2023/06/16 07:20:37;;;;;;;10.20;7.20;;;;;;;33.77;30.06;99748.77;109275;1255;71739;-73
2023/06/16 07:23:25;;;;;;;10.10;6.40;;;;;;;33.97;29.32;99750.10;109222;1255;67931;-71
2023/06/16 07:26:12;;;;;;;10.60;7.30;;;;;;;34.27;28.79;99750.02;109182;1254;71952;-71
2023/06/16 07:29:00;;;;;;;9.70;7.10;;;;;;;34.28;28.73;99749.73;109173;1255;58015;-70
2023/06/16 07:31:47;;;;;;;11.40;6.80;;;;;;;33.71;29.67;99750.61;109407;1254;60224;-70
2023/06/16 07:34:33;;;;;;;10.50;6.20;;;;;;;32.35;31.22;99751.10;109327;1256;72165;-72
2023/06/16 07:37:22;;;;;;;10.80;7.00;;;;;;;31.61;32.14;99751.73;109351;1253;67719;-70
2023/06/16 07:40:13;;;;;;;12.30;7.60;;;;;;;30.42;33.69;99749.55;109397;1255;73116;-71
2023/06/16 07:43:00;;;;;;;11.30;7.50;;;;;;;30.16;34.43;99751.91;109264;1254;57772;-70
2023/06/16 07:45:50;;;;;;;11.60;7.40;;;;;;;30.37;34.43;99749.84;109482;1253;60182;-72
2023/06/16 07:48:37;;;;;;;14.90;6.40;;;;;;;31.05;34.40;99746.38;109231;1255;72103;-76
2023/06/16 07:51:25;;;;;;;18.30;8.00;;;;;;;31.68;33.19;99745.27;109298;1256;67873;-75
2023/06/16 07:54:11;;;;;;;12.30;6.40;;;;;;;31.99;32.18;99748.83;109100;1255;70951;-76
2023/06/16 07:56:58;;;;;;;11.10;6.90;;;;;;;32.06;32.25;99745.48;109139;1255;57755;-73
2023/06/16 07:59:47;;;;;;;13.90;7.90;;;;;;;30.79;33.80;99740.05;109125;1258;59128;-74
2023/06/16 08:02:34;;;;;;;14.90;8.00;;;;;;;30.04;34.93;99742.88;109134;1257;72290;-77
2023/06/16 08:05:23;;;;;;;13.40;7.10;;;;;;;30.24;35.43;99736.90;109083;1255;66564;-75
2023/06/16 08:08:12;;;;;;;11.50;7.60;;;;;;;30.00;35.65;99744.15;109256;1256;73154;-75
2023/06/16 08:11:00;;;;;;;14.20;9.00;;;;;;;28.96;37.01;99743.20;109132;1255;57164;-77
2023/06/16 08:13:46;;;;;;;14.60;9.70;;;;;;;27.48;39.42;99750.34;109168;1257;60373;-74
2023/06/16 08:16:33;;;;;;;12.60;8.30;;;;;;;26.66;41.38;99745.00;109125;1255;71236;-77
2023/06/16 08:19:20;;;;;;;13.90;8.50;;;;;;;26.05;42.62;99741.16;109206;1253;67839;-76
2023/06/16 08:22:07;;;;;;;18.10;9.60;;;;;;;25.27;44.74;99743.05;109458;1253;71421;-76
2023/06/16 08:24:55;;;;;;;16.20;8.70;;;;;;;24.61;46.63;99743.26;109294;1253;56994;-71
2023/06/16 08:27:42;;;;;;;16.30;9.30;;;;;;;24.09;48.08;99743.33;109281;1253;58931;-74
2023/06/16 08:30:29;;;;;;;14.20;7.80;;;;;;;24.89;47.12;99743.42;109314;1253;71003;-75
2023/06/16 08:33:16;;;;;;;11.30;7.30;;;;;;;25.74;44.40;99741.13;109513;1253;66426;-74
2023/06/16 08:36:05;;;;;;;11.80;7.00;;;;;;;25.40;44.40;99741.66;109489;1253;71404;-75
2023/06/16 08:38:52;;;;;;;11.50;6.50;;;;;;;25.29;44.81;99741.74;109327;1253;56772;-71
2023/06/16 08:41:39;;;;;;;12.80;7.10;;;;;;;26.26;44.00;99738.85;109376;1253;59503;-78
2023/06/16 08:44:26;;;;;;;14.80;8.20;;;;;;;27.44;41.31;99742.97;109358;1253;72458;-74
2023/06/16 08:47:13;;;;;;;12.00;6.50;;;;;;;28.29;39.09;99732.80;109398;1253;66438;-73
2023/06/16 08:50:00;;;;;;;14.00;6.60;;;;;;;28.83;38.06;99738.64;109241;1253;72686;-73
2023/06/16 08:52:48;;;;;;;14.00;6.80;;;;;;;29.63;37.10;99735.80;109290;1253;56861;-72
2023/06/16 08:55:40;;;;;;;12.50;7.30;;;;;;;30.42;35.50;99732.50;109184;1253;60030;-72
2023/06/16 08:58:28;;;;;;;11.80;6.70;;;;;;;30.55;34.73;99730.77;109311;1253;70632;-76
2023/06/16 09:01:15;;;;;;;10.10;5.50;;;;;;;31.33;34.00;99732.39;109361;1253;68279;-73
2023/06/16 09:04:01;;;;;;;13.50;5.90;;;;;;;32.08;32.29;99736.31;109425;1253;73100;-72
2023/06/16 09:06:48;;;;;;;10.80;5.60;;;;;;;32.81;31.35;99725.68;109353;1253;57049;-75
2023/06/16 09:09:36;;;;;;;9.80;5.40;;;;;;;33.38;30.57;99732.66;109362;1253;60340;-75
2023/06/16 09:12:22;;;;;;;9.00;5.20;;;;;;;33.82;29.72;99733.75;109411;1253;73115;-75
2023/06/16 09:15:10;;;;;;;8.90;5.60;;;;;;;34.35;29.41;99732.58;109353;1253;67886;-74
2023/06/16 09:17:57;;;;;;;10.40;4.80;;;;;;;34.60;28.89;99728.42;109334;1253;73718;-76
2023/06/16 09:20:52;;;;;;;9.10;5.30;;;;;;;34.95;28.47;99730.23;109293;1253;57872;-76
2023/06/16 09:23:42;;;;;;;11.40;5.80;;;;;;;35.24;27.72;99734.59;109290;1253;59628;-72
2023/06/16 09:26:39;;;;;;;10.00;5.00;;;;;;;35.36;27.41;99737.48;109442;1253;70899;-75
2023/06/16 09:29:28;;;;;;;10.30;4.90;;;;;;;35.13;26.81;99729.67;109477;1253;68081;-74
2023/06/16 09:32:16;;;;;;;9.90;5.50;;;;;;;35.30;27.24;99734.48;109216;1258;72680;-76
2023/06/16 09:35:20;;;;;;;10.20;5.40;;;;;;;35.00;27.55;99726.69;109276;1254;56931;-73
2023/06/16 09:38:10;;;;;;;9.80;5.90;;;;;;;34.38;28.49;99722.34;109404;1253;59395;-76
2023/06/16 09:41:10;;;;;;;15.20;8.70;;;;;;;34.06;28.19;99726.25;109250;1253;72107;-73
2023/06/16 09:43:59;;;;;;;8.80;5.70;;;;;;;33.93;28.05;99725.83;109060;1256;67134;-74
2023/06/16 09:46:49;;;;;;;9.90;5.60;;;;;;;34.18;27.77;99725.33;109055;1258;73449;-72
2023/06/16 09:49:36;;;;;;;9.40;5.30;;;;;;;33.71;28.71;99719.45;108915;1259;58193;-77
2023/06/16 09:52:28;;;;;;;8.80;5.10;;;;;;;34.16;28.11;99724.89;109018;1258;60260;-77
2023/06/16 09:55:15;;;;;;;10.10;5.70;;;;;;;33.92;27.47;99726.05;108950;1259;71438;-75
2023/06/16 09:58:03;;;;;;;12.10;7.70;;;;;;;33.95;28.95;99723.00;108931;1258;68837;-74
2023/06/16 10:00:49;;;;;;;8.70;5.90;;;;;;;33.99;29.48;99718.52;108939;1258;71396;-73
2023/06/16 10:03:41;;;;;;;9.90;6.20;;;;;;;34.14;28.97;99717.98;109015;1259;56952;-73
2023/06/16 10:06:29;;;;;;;9.60;6.00;;;;;;;34.23;28.90;99714.95;108961;1259;60176;-78
2023/06/16 10:09:26;;;;;;;9.40;6.20;;;;;;;34.40;29.24;99715.10;108949;1259;73328;-77
2023/06/16 10:12:14;;;;;;;12.40;7.00;;;;;;;34.64;29.11;99710.77;108949;1259;68348;-76
2023/06/16 10:15:03;;;;;;;9.90;6.00;;;;;;;34.78;28.43;99711.65;109011;1256;72496;-75
2023/06/16 10:17:53;;;;;;;12.00;7.90;;;;;;;34.81;28.25;99712.81;109193;1254;57080;-73
2023/06/16 10:20:41;;;;;;;11.50;6.10;;;;;;;34.94;28.24;99706.52;109283;1254;61400;-74
2023/06/16 10:23:28;;;;;;;10.60;6.30;;;;;;;35.12;28.30;99709.48;109162;1255;72260;-75
2023/06/16 10:26:15;;;;;;;9.00;5.40;;;;;;;35.27;27.30;99713.15;109342;1256;66383;-75
2023/06/16 10:29:03;;;;;;;7.90;4.60;;;;;;;35.57;26.55;99713.29;109175;1256;72691;-77
2023/06/16 10:31:49;;;;;;;10.00;5.00;;;;;;;35.81;26.56;99715.17;109363;1254;56988;-76
2023/06/16 10:34:49;;;;;;;8.50;5.30;;;;;;;35.91;26.20;99712.73;109211;1254;58808;-74
2023/06/16 10:37:37;;;;;;;9.10;5.40;;;;;;;35.85;26.06;99713.86;109262;1254;71498;-76
2023/06/16 10:40:28;;;;;;;8.40;5.20;;;;;;;35.46;25.91;99713.48;109321;1254;66302;-73
2023/06/16 10:43:26;;;;;;;8.60;5.00;;;;;;;35.67;26.18;99710.35;109215;1254;73719;-74
2023/06/16 10:46:20;;;;;;;9.90;4.70;;;;;;;35.75;25.88;99710.25;109281;1254;58700;-75
2023/06/16 10:49:07;;;;;;;10.50;4.80;;;;;;;35.98;25.66;99708.66;109378;1253;59045;-76
2023/06/16 10:51:56;;;;;;;10.20;6.00;;;;;;;36.03;25.36;99712.02;109558;1253;71432;-76
2023/06/16 10:54:44;;;;;;;10.00;5.90;;;;;;;36.03;26.10;99708.59;109301;1253;67878;-77
2023/06/16 10:57:36;;;;;;;9.30;5.30;;;;;;;36.12;25.99;99712.45;109315;1253;72653;-76
2023/06/16 11:00:27;;;;;;;10.80;6.00;;;;;;;34.75;27.48;99707.39;109332;1253;57689;-77
2023/06/16 11:03:14;;;;;;;11.30;5.80;;;;;;;33.41;29.18;99704.53;109263;1253;61312;-78
2023/06/16 11:06:03;;;;;;;11.80;6.80;;;;;;;33.59;29.40;99701.38;109561;1253;72300;-75
2023/06/16 11:08:52;;;;;;;11.00;6.60;;;;;;;33.14;30.30;99701.76;109221;1253;67234;-79
2023/06/16 11:11:40;;;;;;;10.80;7.50;;;;;;;32.10;32.17;99706.61;109270;1253;70738;-78
2023/06/16 11:14:27;;;;;;;10.70;6.40;;;;;;;31.63;33.07;99708.40;109270;1254;57921;-75
2023/06/16 11:17:19;;;;;;;9.40;6.70;;;;;;;31.22;33.98;99705.62;109252;1253;59395;-76
2023/06/16 11:20:09;;;;;;;10.90;7.30;;;;;;;30.56;35.19;99699.23;109247;1254;70761;-79
2023/06/16 11:22:56;;;;;;;14.00;8.70;;;;;;;30.44;34.99;99696.67;109315;1253;67065;-79
2023/06/16 11:25:42;;;;;;;12.40;7.10;;;;;;;30.12;35.32;99699.14;109168;1255;72762;-79
2023/06/16 11:28:30;;;;;;;13.30;8.10;;;;;;;29.95;35.46;99695.27;109165;1254;56970;-76
2023/06/16 11:31:20;;;;;;;12.90;8.60;;;;;;;29.69;36.29;99702.05;109281;1254;59082;-77
2023/06/16 11:34:07;;;;;;;11.00;7.30;;;;;;;29.40;37.40;99700.02;109012;1257;71104;-75
2023/06/16 11:36:57;;;;;;;10.40;7.10;;;;;;;29.02;38.10;99696.59;109179;1256;66313;-78
2023/06/16 11:39:45;;;;;;;10.80;7.30;;;;;;;28.71;38.79;99697.30;109098;1257;72618;-71
2023/06/16 11:42:33;;;;;;;11.60;7.00;;;;;;;28.39;39.37;99688.57;109115;1257;56918;-72
2023/06/16 11:45:20;;;;;;;12.00;7.10;;;;;;;28.07;40.14;99691.38;109188;1257;58685;-75
2023/06/16 11:48:09;;;;;;;15.10;9.20;;;;;;;27.74;40.85;99688.73;108882;1257;72322;-73
2023/06/16 11:50:58;;;;;;;12.30;8.10;;;;;;;27.36;41.38;99688.78;109101;1256;66642;-71
2023/06/16 11:53:46;;;;;;;13.20;7.40;;;;;;;26.93;42.25;99692.05;108974;1256;72753;-71
2023/06/16 11:56:33;;;;;;;10.90;6.70;;;;;;;26.56;42.32;99689.09;109052;1256;57015;-71
2023/06/16 11:59:23;;;;;;;11.10;6.30;;;;;;;26.26;42.94;99690.21;108974;1256;61592;-70
2023/06/16 12:02:10;;;;;;;12.90;6.70;;;;;;;26.07;43.79;99682.64;109126;1256;70862;-71
2023/06/16 12:04:57;;;;;;;10.60;6.40;;;;;;;25.97;44.27;99684.83;108951;1257;67788;-73
2023/06/16 12:07:44;;;;;;;14.30;7.20;;;;;;;25.78;44.25;99681.84;109024;1261;71262;-73
2023/06/16 12:10:31;;;;;;;9.80;6.00;;;;;;;25.63;44.93;99677.00;108853;1260;56906;-72
2023/06/16 12:13:24;;;;;;;14.40;7.20;;;;;;;25.59;45.73;99679.70;108734;1260;60026;-71
2023/06/16 12:16:14;;;;;;;10.60;6.60;;;;;;;25.29;45.80;99680.86;108975;1261;72092;-71
2023/06/16 12:19:01;;;;;;;11.00;6.60;;;;;;;25.11;46.67;99682.55;108782;1262;66423;-72
2023/06/16 12:21:53;;;;;;;13.00;7.80;;;;;;;25.08;46.73;99682.66;108724;1262;71185;-73
2023/06/16 12:24:40;;;;;;;11.10;7.00;;;;;;;25.01;46.98;99685.66;108895;1262;56961;-73
2023/06/16 12:27:27;;;;;;;11.50;6.70;;;;;;;24.91;47.08;99683.81;108755;1262;59089;-70
2023/06/16 12:30:15;;;;;;;11.70;7.20;;;;;;;24.95;47.65;99681.27;108772;1262;70394;-71
2023/06/16 12:33:12;;;;;;;11.20;6.90;;;;;;;25.00;46.98;99682.91;108774;1265;67658;-71
2023/06/16 12:36:09;;;;;;;13.00;7.30;;;;;;;24.98;46.67;99684.09;108890;1261;71266;-67
2023/06/16 12:38:59;;;;;;;10.70;6.90;;;;;;;24.76;47.19;99679.46;109017;1259;57848;-65
2023/06/16 12:42:25;;;;;;;10.20;6.40;;;;;;;24.61;47.86;99677.98;109059;1259;58128;-63
2023/06/16 12:45:12;;;;;;;10.60;6.40;;;;;;;24.27;47.41;99683.02;108651;1269;70845;-62
2023/06/16 12:48:00;;;;;;;10.60;6.40;;;;;;;23.99;48.81;99678.66;108739;1262;66573;-60
2023/06/16 12:50:48;;;;;;;11.70;5.80;;;;;;;23.95;49.04;99677.04;108838;1261;72658;-63
2023/06/16 12:53:46;;;;;;;9.50;5.60;;;;;;;23.94;49.08;99674.08;108915;1263;57710;-64